createdAt,value
2019-03-19T00:01:59.563Z,90.20
2019-03-19T00:04:27.012Z,90.10
2019-03-19T00:06:54.455Z,90.30
2019-03-19T00:09:21.933Z,90.10
2019-03-19T00:11:49.544Z,90.00
2019-03-19T00:14:17.034Z,89.80
2019-03-19T00:16:44.492Z,90.50
2019-03-19T00:19:11.932Z,90.50
2019-03-19T00:21:39.351Z,90.80
2019-03-19T00:24:06.833Z,90.80
2019-03-19T00:26:34.299Z,90.70
2019-03-19T00:29:01.764Z,90.50
2019-03-19T00:31:29.194Z,90.60
2019-03-19T00:33:56.648Z,90.60
2019-03-19T00:36:24.096Z,90.40
2019-03-19T00:38:51.586Z,90.50
2019-03-19T00:41:19.057Z,90.20
2019-03-19T00:43:46.636Z,90.20
2019-03-19T00:46:14.087Z,90.30
2019-03-19T00:48:41.536Z,90.40
2019-03-19T00:51:08.976Z,90.90
2019-03-19T00:53:36.441Z,91.10
2019-03-19T00:56:03.894Z,91.20
2019-03-19T00:58:31.342Z,90.80
2019-03-19T01:00:58.791Z,90.60
2019-03-19T01:03:26.240Z,90.50
2019-03-19T01:05:53.666Z,90.50
2019-03-19T01:08:21.128Z,90.70
2019-03-19T01:10:48.633Z,90.50
2019-03-19T01:13:16.072Z,90.60
2019-03-19T01:15:43.516Z,90.60
2019-03-19T01:18:10.977Z,90.90
2019-03-19T01:20:38.412Z,91.30
2019-03-19T01:23:06.045Z,91.10
2019-03-19T01:25:35.154Z,91.00
2019-03-19T01:28:02.752Z,91.00
2019-03-19T01:30:30.208Z,90.90
2019-03-19T01:32:57.741Z,91.10
2019-03-19T01:35:25.211Z,91.20
2019-03-19T01:37:52.649Z,91.20
2019-03-19T01:40:20.072Z,91.60
2019-03-19T01:42:47.649Z,91.60
2019-03-19T01:45:15.081Z,91.50
2019-03-19T01:47:42.463Z,91.50
2019-03-19T01:50:10.109Z,91.30
2019-03-19T01:52:37.538Z,91.30
2019-03-19T01:55:05.561Z,91.30
2019-03-19T01:57:33.001Z,91.40
2019-03-19T02:00:00.439Z,91.50
2019-03-19T02:02:27.880Z,91.40
2019-03-19T02:04:55.312Z,91.30
2019-03-19T02:07:22.748Z,91.20
2019-03-19T02:09:50.191Z,91.10
2019-03-19T02:12:17.664Z,91.10
2019-03-19T02:14:45.112Z,90.80
2019-03-19T02:17:12.836Z,90.80
2019-03-19T02:19:40.511Z,90.90
2019-03-19T02:22:07.948Z,91.10
2019-03-19T02:24:35.401Z,91.10
2019-03-19T02:27:02.827Z,91.20
2019-03-19T02:29:30.295Z,91.70
2019-03-19T02:31:57.731Z,91.40
2019-03-19T02:34:25.161Z,91.50
2019-03-19T02:36:52.609Z,91.60
2019-03-19T02:39:20.041Z,91.70
2019-03-19T02:41:47.502Z,91.70
2019-03-19T02:44:14.935Z,91.80
2019-03-19T02:46:42.365Z,92.20
2019-03-19T02:49:09.822Z,92.00
2019-03-19T02:51:37.240Z,92.00
2019-03-19T02:54:04.680Z,91.70
2019-03-19T02:56:33.544Z,91.80
2019-03-19T02:59:01.298Z,91.60
2019-03-19T03:01:28.737Z,91.50
2019-03-19T03:03:56.190Z,91.60
2019-03-19T03:06:23.641Z,91.50
2019-03-19T03:08:51.068Z,91.40
2019-03-19T03:11:18.632Z,91.50
2019-03-19T03:13:46.080Z,91.30
2019-03-19T03:16:13.532Z,91.10
2019-03-19T03:18:40.963Z,91.20
2019-03-19T03:21:08.428Z,91.10
2019-03-19T03:23:35.875Z,90.90
2019-03-19T03:26:03.317Z,90.90
2019-03-19T03:28:30.761Z,91.00
2019-03-19T03:30:58.197Z,90.90
2019-03-19T03:33:25.655Z,91.10
2019-03-19T03:35:53.094Z,91.20
2019-03-19T03:38:20.533Z,91.10
2019-03-19T03:40:47.994Z,91.00
2019-03-19T03:43:15.729Z,91.00
2019-03-19T03:45:43.166Z,91.20
2019-03-19T03:48:10.629Z,91.00
2019-03-19T03:50:38.053Z,90.80
2019-03-19T03:53:05.456Z,90.90
2019-03-19T03:55:33.063Z,90.80
2019-03-19T03:58:00.496Z,90.80
2019-03-19T04:00:27.934Z,90.80
2019-03-19T04:02:55.381Z,90.70
2019-03-19T04:05:22.890Z,90.70
2019-03-19T04:07:50.353Z,90.70
2019-03-19T04:10:17.932Z,90.80
2019-03-19T04:12:45.369Z,90.80
2019-03-19T04:15:12.990Z,90.90
2019-03-19T04:17:40.453Z,90.90
2019-03-19T04:20:08.196Z,90.90
2019-03-19T04:22:35.649Z,91.00
2019-03-19T04:25:03.123Z,90.90
2019-03-19T04:27:30.569Z,91.00
2019-03-19T04:29:58.013Z,91.10
2019-03-19T04:32:25.444Z,91.00
2019-03-19T04:34:52.896Z,91.00
2019-03-19T04:37:20.316Z,91.10
2019-03-19T04:39:47.751Z,91.30
2019-03-19T04:42:15.208Z,91.20
2019-03-19T04:44:42.669Z,91.10
2019-03-19T04:47:10.100Z,91.00
2019-03-19T04:49:37.566Z,91.00
2019-03-19T04:52:05.005Z,91.20
2019-03-19T04:54:32.440Z,91.00
2019-03-19T04:56:59.905Z,90.90
2019-03-19T04:59:27.452Z,90.80
2019-03-19T05:01:54.882Z,90.80
2019-03-19T05:04:22.340Z,90.70
2019-03-19T05:06:49.898Z,90.70
2019-03-19T05:09:17.380Z,90.80
2019-03-19T05:11:44.819Z,90.80
2019-03-19T05:14:12.224Z,90.70
2019-03-19T05:16:39.683Z,90.70
2019-03-19T05:19:07.101Z,90.70
2019-03-19T05:21:34.528Z,90.70
2019-03-19T05:24:02.137Z,90.60
2019-03-19T05:26:29.572Z,90.60
2019-03-19T05:28:57.004Z,90.60
2019-03-19T05:31:24.472Z,90.60
2019-03-19T05:33:51.966Z,90.50
2019-03-19T05:36:19.449Z,90.40
2019-03-19T05:38:46.914Z,90.30
2019-03-19T05:41:16.557Z,90.50
2019-03-19T05:43:43.578Z,90.40
2019-03-19T05:46:11.024Z,90.20
2019-03-19T05:48:38.492Z,90.30
2019-03-19T05:51:05.929Z,90.60
2019-03-19T05:53:33.364Z,90.30
2019-03-19T05:56:00.834Z,90.60
2019-03-19T05:58:28.256Z,90.30
2019-03-19T06:00:55.725Z,90.50
2019-03-19T06:03:23.173Z,90.60
2019-03-19T06:05:50.629Z,90.50
2019-03-19T06:08:18.183Z,90.60
2019-03-19T06:10:47.543Z,90.40
2019-03-19T06:13:14.992Z,90.60
2019-03-19T06:15:42.426Z,90.60
2019-03-19T06:18:10.163Z,90.40
2019-03-19T06:20:37.556Z,90.40
2019-03-19T06:23:05.021Z,90.40
2019-03-19T06:25:32.373Z,90.50
2019-03-19T06:28:00.976Z,90.50
2019-03-19T06:30:28.558Z,90.40
2019-03-19T06:32:55.989Z,90.50
2019-03-19T06:35:23.433Z,90.40
2019-03-19T06:37:50.877Z,90.30
2019-03-19T06:40:18.496Z,90.40
2019-03-19T06:42:45.963Z,90.20
2019-03-19T06:45:13.644Z,90.40
2019-03-19T06:47:41.175Z,90.50
2019-03-19T06:50:09.891Z,90.20
2019-03-19T06:52:37.348Z,90.10
2019-03-19T06:55:05.620Z,89.90
2019-03-19T06:57:39.101Z,89.50
2019-03-19T07:00:03.025Z,89.40
2019-03-19T07:02:30.462Z,90.10
2019-03-19T07:04:57.902Z,89.10
2019-03-19T07:07:25.373Z,88.60
2019-03-19T07:09:52.800Z,88.50
2019-03-19T07:12:20.247Z,88.00
2019-03-19T07:14:47.681Z,87.80
2019-03-19T07:17:15.253Z,87.60
2019-03-19T07:19:42.704Z,87.30
2019-03-19T07:22:10.159Z,87.20
2019-03-19T07:24:37.593Z,86.90
2019-03-19T07:27:05.024Z,86.70
2019-03-19T07:29:32.488Z,85.90
2019-03-19T07:31:59.940Z,85.70
2019-03-19T07:34:27.369Z,84.90
2019-03-19T07:36:54.810Z,84.80
2019-03-19T07:39:22.261Z,84.60
2019-03-19T07:41:49.757Z,84.80
2019-03-19T07:44:17.197Z,84.20
2019-03-19T07:46:45.936Z,82.60
2019-03-19T07:49:13.683Z,82.40
2019-03-19T07:51:41.008Z,81.80
2019-03-19T07:54:08.463Z,81.60
2019-03-19T07:56:35.893Z,80.70
2019-03-19T07:59:03.653Z,80.70
2019-03-19T08:01:31.117Z,80.50
2019-03-19T08:03:58.760Z,80.10
2019-03-19T08:06:26.216Z,80.10
2019-03-19T08:08:53.702Z,80.40
2019-03-19T08:11:21.140Z,80.60
2019-03-19T08:13:48.896Z,81.30
2019-03-19T08:16:26.806Z,80.90
2019-03-19T08:18:45.605Z,80.50
2019-03-19T08:21:13.151Z,81.30
2019-03-19T08:23:40.589Z,80.00
2019-03-19T08:26:08.024Z,80.80
2019-03-19T08:28:35.471Z,80.30
2019-03-19T08:31:02.893Z,80.30
2019-03-19T08:33:30.336Z,79.70
2019-03-19T08:35:57.875Z,80.10
2019-03-19T08:38:26.524Z,80.40
2019-03-19T08:40:54.120Z,81.40
2019-03-19T08:43:21.564Z,80.30
2019-03-19T08:45:49.053Z,80.80
2019-03-19T08:48:16.485Z,80.90
2019-03-19T08:50:43.916Z,79.90
2019-03-19T08:53:11.383Z,81.30
2019-03-19T08:55:38.819Z,81.10
2019-03-19T08:58:06.276Z,81.60
2019-03-19T09:00:33.712Z,81.10
2019-03-19T09:03:01.145Z,81.20
2019-03-19T09:05:28.601Z,81.00
2019-03-19T09:07:56.056Z,81.50
2019-03-19T09:10:23.492Z,81.20
2019-03-19T09:12:50.931Z,80.80
2019-03-19T09:15:18.480Z,80.40
2019-03-19T09:17:45.930Z,80.30
2019-03-19T09:20:13.384Z,79.70
2019-03-19T09:22:40.922Z,80.00
2019-03-19T09:25:09.263Z,79.70
2019-03-19T09:27:36.968Z,78.90
2019-03-19T09:30:06.344Z,79.60
2019-03-19T09:32:33.796Z,79.20
2019-03-19T09:35:01.219Z,78.10
2019-03-19T09:37:28.650Z,77.50
2019-03-19T09:39:56.108Z,78.00
2019-03-19T09:42:23.546Z,78.00
2019-03-19T09:44:58.427Z,74.70
2019-03-19T09:47:20.243Z,75.90
2019-03-19T09:49:47.826Z,74.80
2019-03-19T09:52:15.177Z,75.80
2019-03-19T09:54:42.616Z,74.00
2019-03-19T09:57:10.086Z,72.80
2019-03-19T09:59:37.530Z,75.00
2019-03-19T10:02:04.973Z,76.60
2019-03-19T10:04:32.445Z,77.10
2019-03-19T10:07:06.077Z,74.60
2019-03-19T10:09:29.111Z,75.40
2019-03-19T10:11:56.558Z,74.90
2019-03-19T10:14:23.987Z,75.30
2019-03-19T10:16:51.447Z,76.20
2019-03-19T10:19:18.995Z,76.20
2019-03-19T10:21:46.416Z,75.40
2019-03-19T10:24:13.847Z,73.00
2019-03-19T10:26:41.290Z,73.70
2019-03-19T10:29:08.719Z,73.70
2019-03-19T10:31:36.150Z,72.20
2019-03-19T10:34:03.710Z,73.00
2019-03-19T10:36:31.113Z,71.70
2019-03-19T10:38:58.547Z,72.70
2019-03-19T10:41:25.984Z,70.90
2019-03-19T10:43:53.428Z,69.20
2019-03-19T10:46:20.896Z,67.60
2019-03-19T10:48:48.324Z,68.60
2019-03-19T10:51:15.756Z,70.00
2019-03-19T10:53:43.184Z,71.70
2019-03-19T10:56:10.671Z,71.20
2019-03-19T10:58:38.097Z,69.60
2019-03-19T11:01:05.544Z,70.50
2019-03-19T11:03:32.980Z,70.10
2019-03-19T11:06:00.434Z,70.20
2019-03-19T11:08:27.880Z,69.40
2019-03-19T11:10:55.348Z,68.00
2019-03-19T11:13:22.709Z,69.90
2019-03-19T11:15:50.145Z,68.40
2019-03-19T11:18:17.806Z,66.90
2019-03-19T11:20:45.613Z,66.60
2019-03-19T11:23:13.152Z,67.80
2019-03-19T11:25:40.592Z,68.70
2019-03-19T11:28:08.049Z,69.80
2019-03-19T11:30:35.530Z,70.20
2019-03-19T11:33:03.362Z,70.00
2019-03-19T11:35:30.801Z,70.20
2019-03-19T11:37:58.257Z,70.00
2019-03-19T11:40:26.313Z,69.60
2019-03-19T11:42:53.988Z,69.10
2019-03-19T11:45:21.440Z,68.90
2019-03-19T11:47:48.984Z,69.60
2019-03-19T11:50:18.505Z,69.10
2019-03-19T11:52:45.972Z,68.00
2019-03-19T11:55:13.637Z,67.10
2019-03-19T11:57:41.074Z,66.90
2019-03-19T12:00:15.992Z,65.70
2019-03-19T12:02:43.426Z,63.90
2019-03-19T12:05:12.671Z,64.60
2019-03-19T12:07:40.040Z,65.00
2019-03-19T12:10:07.713Z,64.30
2019-03-19T12:12:35.144Z,62.30
2019-03-19T12:15:02.732Z,64.30
2019-03-19T12:17:30.210Z,62.90
2019-03-19T12:19:57.620Z,63.60
2019-03-19T12:22:25.085Z,62.40
2019-03-19T12:24:52.526Z,62.50
2019-03-19T12:27:19.981Z,61.20
2019-03-19T12:29:47.436Z,61.50
2019-03-19T12:32:14.998Z,64.00
2019-03-19T12:34:42.479Z,63.30
2019-03-19T12:37:09.913Z,63.00
2019-03-19T12:39:37.353Z,63.60
2019-03-19T12:42:04.824Z,63.60
2019-03-19T12:44:32.273Z,62.60
2019-03-19T12:46:59.712Z,61.90
2019-03-19T12:49:27.182Z,59.50
2019-03-19T12:51:54.608Z,61.50
2019-03-19T12:54:22.092Z,60.90
2019-03-19T12:56:49.572Z,60.60
2019-03-19T12:59:20.465Z,59.00
2019-03-19T13:01:46.280Z,58.90
2019-03-19T13:04:13.709Z,60.10
2019-03-19T13:06:41.115Z,60.50
2019-03-19T13:09:08.555Z,60.20
2019-03-19T13:11:35.965Z,60.40
2019-03-19T13:14:03.386Z,60.10
2019-03-19T13:16:30.806Z,60.10
2019-03-19T13:18:58.228Z,60.80
2019-03-19T13:21:25.697Z,60.90
2019-03-19T13:23:53.129Z,61.00
2019-03-19T13:26:20.561Z,60.00
2019-03-19T13:28:48.056Z,59.30
2019-03-19T13:31:15.488Z,59.50
2019-03-19T13:33:42.942Z,59.00
2019-03-19T13:36:10.385Z,59.40
2019-03-19T13:38:37.833Z,59.70
2019-03-19T13:41:05.268Z,60.30
2019-03-19T13:43:32.753Z,60.60
2019-03-19T13:46:00.225Z,61.20
2019-03-19T13:48:27.669Z,61.10
2019-03-19T13:50:55.117Z,61.90
2019-03-19T13:53:22.562Z,60.40
2019-03-19T13:55:49.988Z,60.30
2019-03-19T13:58:17.547Z,60.40
2019-03-19T14:00:55.094Z,61.70
2019-03-19T14:03:14.129Z,62.00
2019-03-19T14:05:41.598Z,63.30
2019-03-19T14:08:09.047Z,62.90
2019-03-19T14:10:36.485Z,62.60
2019-03-19T14:13:04.145Z,62.00
2019-03-19T14:15:31.576Z,62.00
2019-03-19T14:17:59.024Z,62.50
2019-03-19T14:20:26.483Z,61.80
2019-03-19T14:22:53.926Z,61.90
2019-03-19T14:25:21.353Z,62.50
2019-03-19T14:27:48.800Z,62.60
2019-03-19T14:30:16.484Z,61.40
2019-03-19T14:32:43.959Z,61.80
2019-03-19T14:35:11.591Z,62.40
2019-03-19T14:37:39.007Z,63.60
2019-03-19T14:40:08.071Z,64.20
2019-03-19T14:42:35.492Z,63.40
2019-03-19T14:45:03.459Z,64.20
2019-03-19T14:47:30.918Z,62.60
2019-03-19T14:49:58.377Z,63.00
2019-03-19T14:52:25.850Z,63.60
2019-03-19T14:54:53.250Z,63.00
2019-03-19T14:57:20.712Z,63.00
2019-03-19T14:59:48.245Z,63.80
2019-03-19T15:02:15.680Z,64.30
2019-03-19T15:04:43.111Z,64.50
2019-03-19T15:07:10.564Z,65.20
2019-03-19T15:09:37.992Z,65.00
2019-03-19T15:12:05.420Z,64.00
2019-03-19T15:14:32.898Z,64.50
2019-03-19T15:17:04.903Z,65.30
2019-03-19T15:19:29.612Z,64.50
2019-03-19T15:21:57.048Z,64.70
2019-03-19T15:24:24.385Z,64.50
2019-03-19T15:26:51.841Z,65.30
2019-03-19T15:29:19.299Z,65.00
2019-03-19T15:31:46.740Z,65.00
2019-03-19T15:34:14.197Z,64.90
2019-03-19T15:36:41.628Z,65.00
2019-03-19T15:39:09.068Z,65.70
2019-03-19T15:41:36.540Z,65.10
2019-03-19T15:44:03.988Z,65.00
2019-03-19T15:46:31.420Z,65.00
2019-03-19T15:49:00.457Z,65.70
2019-03-19T15:51:28.064Z,64.50
2019-03-19T15:53:55.496Z,64.60
2019-03-19T15:56:22.960Z,64.60
2019-03-19T15:58:50.409Z,65.40
2019-03-19T16:01:17.941Z,66.30
2019-03-19T16:03:45.442Z,66.20
2019-03-19T16:06:12.864Z,66.40
2019-03-19T16:08:40.332Z,67.10
2019-03-19T16:11:07.764Z,67.30
2019-03-19T16:13:35.184Z,67.00
2019-03-19T16:16:02.688Z,67.30
2019-03-19T16:18:30.150Z,67.20
2019-03-19T16:20:57.737Z,67.40
2019-03-19T16:23:25.167Z,67.20
2019-03-19T16:25:52.614Z,67.40
2019-03-19T16:28:20.098Z,68.40
2019-03-19T16:30:47.633Z,67.80
2019-03-19T16:33:15.180Z,67.70
2019-03-19T16:35:42.622Z,68.40
2019-03-19T16:38:10.105Z,67.70
2019-03-19T16:40:37.554Z,67.10
2019-03-19T16:43:05.129Z,68.90
2019-03-19T16:45:32.580Z,68.80
2019-03-19T16:48:00.026Z,69.10
2019-03-19T16:50:27.488Z,69.50
2019-03-19T16:52:54.917Z,68.10
2019-03-19T16:55:22.370Z,67.80
2019-03-19T16:57:49.830Z,68.20
2019-03-19T17:00:17.283Z,68.70
2019-03-19T17:02:44.757Z,67.90
2019-03-19T17:05:13.100Z,67.70
2019-03-19T17:07:40.557Z,66.60
2019-03-19T17:10:09.556Z,66.50
2019-03-19T17:12:37.023Z,66.40
2019-03-19T17:15:04.992Z,67.30
2019-03-19T17:17:32.445Z,66.70
2019-03-19T17:20:00.469Z,67.40
2019-03-19T17:22:28.619Z,67.50
2019-03-19T17:24:56.512Z,67.50
2019-03-19T17:27:24.620Z,67.30
2019-03-19T17:29:52.435Z,69.00
2019-03-19T17:32:19.896Z,68.60
2019-03-19T17:34:47.342Z,68.20
2019-03-19T17:37:14.783Z,67.60
2019-03-19T17:39:42.257Z,69.50
2019-03-19T17:42:09.536Z,69.10
2019-03-19T17:44:36.817Z,69.20
2019-03-19T17:47:03.600Z,68.10
2019-03-19T17:49:30.878Z,68.90
2019-03-19T17:51:57.752Z,69.50
2019-03-19T17:54:25.191Z,69.20
2019-03-19T17:56:52.462Z,69.80
2019-03-19T17:59:19.420Z,70.50
2019-03-19T18:01:46.861Z,69.20
2019-03-19T18:04:14.296Z,70.10
2019-03-19T18:06:43.235Z,70.40
2019-03-19T18:09:10.834Z,70.70
2019-03-19T18:11:38.256Z,71.10
2019-03-19T18:14:05.853Z,70.10
2019-03-19T18:16:33.130Z,71.10
2019-03-19T18:19:00.624Z,71.30
2019-03-19T18:21:28.046Z,71.00
2019-03-19T18:23:55.490Z,71.00
2019-03-19T18:26:22.940Z,71.30
2019-03-19T18:28:50.400Z,71.00
2019-03-19T18:31:17.884Z,70.80
2019-03-19T18:33:45.336Z,70.90
2019-03-19T18:36:14.112Z,71.30
2019-03-19T18:38:41.548Z,71.40
2019-03-19T18:41:09.019Z,72.00
2019-03-19T18:43:36.473Z,71.70
2019-03-19T18:46:03.915Z,71.30
2019-03-19T18:48:31.253Z,71.10
2019-03-19T18:50:58.725Z,71.40
2019-03-19T18:53:26.175Z,71.30
2019-03-19T18:55:53.613Z,72.00
2019-03-19T18:58:21.072Z,72.00
2019-03-19T19:00:48.657Z,72.00
2019-03-19T19:03:16.076Z,72.40
2019-03-19T19:05:43.610Z,72.70
2019-03-19T19:08:11.071Z,73.10
2019-03-19T19:10:38.540Z,73.50
2019-03-19T19:13:06.005Z,73.60
2019-03-19T19:15:33.460Z,74.10
2019-03-19T19:18:00.909Z,73.60
2019-03-19T19:20:28.376Z,73.70
2019-03-19T19:22:55.844Z,74.60
2019-03-19T19:25:23.304Z,74.40
2019-03-19T19:27:50.732Z,74.70
2019-03-19T19:30:18.534Z,74.80
2019-03-19T19:32:45.984Z,74.50
2019-03-19T19:35:13.396Z,74.70
2019-03-19T19:37:40.824Z,75.20
2019-03-19T19:40:10.451Z,74.50
2019-03-19T19:42:37.924Z,75.50
2019-03-19T19:45:05.513Z,75.40
2019-03-19T19:47:32.974Z,75.20
2019-03-19T19:50:00.476Z,75.10
2019-03-19T19:52:27.925Z,75.50
2019-03-19T19:54:55.372Z,75.00
2019-03-19T19:57:22.803Z,75.00
2019-03-19T19:59:50.252Z,75.20
2019-03-19T20:02:17.713Z,75.10
2019-03-19T20:04:45.164Z,75.10
2019-03-19T20:07:12.617Z,75.30
2019-03-19T20:09:40.066Z,75.40
2019-03-19T20:12:07.602Z,75.60
2019-03-19T20:14:35.087Z,75.00
2019-03-19T20:17:02.573Z,74.60
2019-03-19T20:19:30.049Z,75.00
2019-03-19T20:21:57.596Z,74.60
2019-03-19T20:24:25.046Z,74.60
2019-03-19T20:26:52.480Z,75.10
2019-03-19T20:29:20.087Z,75.10
2019-03-19T20:31:47.630Z,75.00
2019-03-19T20:34:15.214Z,75.00
2019-03-19T20:36:42.702Z,74.80
2019-03-19T20:39:10.139Z,74.40
2019-03-19T20:41:37.647Z,74.50
2019-03-19T20:44:05.088Z,73.90
2019-03-19T20:46:32.525Z,74.10
2019-03-19T20:49:00.002Z,74.30
2019-03-19T20:51:27.433Z,75.00
2019-03-19T20:53:54.992Z,74.10
2019-03-19T20:56:22.465Z,74.20
2019-03-19T20:58:49.907Z,74.50
2019-03-19T21:01:17.359Z,74.50
2019-03-19T21:03:44.786Z,74.60
2019-03-19T21:06:12.258Z,74.30
2019-03-19T21:08:39.785Z,74.30
2019-03-19T21:11:07.232Z,74.70
2019-03-19T21:13:34.669Z,74.20
2019-03-19T21:16:03.769Z,73.70
2019-03-19T21:18:31.218Z,74.50
2019-03-19T21:20:58.672Z,74.70
2019-03-19T21:23:26.107Z,73.60
2019-03-19T21:25:54.338Z,73.60
2019-03-19T21:28:22.204Z,73.00
2019-03-19T21:30:49.766Z,73.00
2019-03-19T21:33:17.196Z,73.80
2019-03-19T21:35:44.630Z,73.50
2019-03-19T21:38:12.210Z,73.70
2019-03-19T21:40:39.634Z,74.20
2019-03-19T21:43:07.085Z,73.90
2019-03-19T21:45:34.571Z,73.20
2019-03-19T21:48:01.997Z,73.10
2019-03-19T21:50:29.429Z,73.20
2019-03-19T21:52:56.992Z,73.20
2019-03-19T21:55:24.442Z,73.30
2019-03-19T21:57:51.877Z,73.00
2019-03-19T22:00:19.425Z,73.10
2019-03-19T22:02:46.891Z,72.70
2019-03-19T22:05:19.908Z,72.90
2019-03-19T22:07:47.339Z,73.10
2019-03-19T22:10:14.853Z,73.00
2019-03-19T22:12:42.282Z,73.60
2019-03-19T22:15:13.352Z,73.60
2019-03-19T22:17:40.692Z,73.70
2019-03-19T22:20:08.336Z,74.40
2019-03-19T22:22:35.797Z,73.80
2019-03-19T22:25:03.390Z,74.00
2019-03-19T22:27:30.794Z,74.10
2019-03-19T22:29:58.252Z,74.30
2019-03-19T22:32:25.705Z,74.40
2019-03-19T22:34:53.143Z,74.20
2019-03-19T22:37:20.602Z,74.60
2019-03-19T22:39:48.028Z,74.80
2019-03-19T22:42:15.469Z,75.10
2019-03-19T22:44:42.930Z,75.20
2019-03-19T22:47:10.388Z,74.60
2019-03-19T22:49:37.841Z,74.10
2019-03-19T22:52:05.281Z,74.20
2019-03-19T22:54:32.701Z,74.40
2019-03-19T22:57:00.164Z,74.30
2019-03-19T22:59:27.734Z,74.60
2019-03-19T23:01:55.153Z,74.80
2019-03-19T23:04:27.106Z,74.40
2019-03-19T23:06:51.962Z,74.90
2019-03-19T23:09:19.395Z,74.90
2019-03-19T23:11:46.850Z,75.20
2019-03-19T23:14:14.271Z,76.00
2019-03-19T23:16:41.733Z,75.90
2019-03-19T23:19:09.165Z,75.90
2019-03-19T23:21:36.606Z,76.40
2019-03-19T23:24:04.355Z,76.50
2019-03-19T23:26:31.777Z,76.30
2019-03-19T23:28:59.217Z,77.10
2019-03-19T23:31:26.653Z,77.50
2019-03-19T23:33:54.162Z,77.40
2019-03-19T23:36:21.625Z,78.00
2019-03-19T23:38:49.086Z,78.00
2019-03-19T23:41:16.524Z,78.60
2019-03-19T23:43:43.991Z,79.10
2019-03-19T23:46:11.437Z,79.80
2019-03-19T23:48:38.878Z,80.50
2019-03-19T23:51:06.444Z,80.00
2019-03-19T23:53:33.881Z,79.90
2019-03-19T23:56:01.303Z,80.20
2019-03-19T23:58:28.760Z,80.50
